ETH926 DGAA-HAAB
Flight info
| Callsign | ETH926 |
|---|---|
| Flight time | 5h 23m |
| Altitude | 35000 |
| Route | EREKA1C EREKA UL433 LAG UQ200 OPOLA/N0462F370 UQ200 IPISU DCT ASKON L558 DASTU UT139 BRO BRO3B |
| Aircraft | B38M/M-SDE1FGHILORVWXY/HB1 |
Departure
| Time | 2026-05-04 11:56 |
|---|---|
| Airport | Kotoka International Airport (DGAA) |
Arrival
| Time | 2026-05-04 17:20 |
|---|---|
| Airport | Addis Ababa Bole International Airport (HAAB) |
| Time | Latitude | Longitude | Altitude | Speed | Heading |
|---|---|---|---|---|---|
| 2026-05-04 11:37 | 5.60043 | -0.17244 | 187 ft | 0 kts | 292° |
| 2026-05-04 11:49 | 5.60036 | -0.17225 | 216 ft | 4 kts | 290° |
| 2026-05-04 11:49 | 5.60027 | -0.17199 | 213 ft | 4 kts | 285° |
| 2026-05-04 11:49 | 5.60022 | -0.17172 | 215 ft | 4 kts | 276° |
| 2026-05-04 11:49 | 5.60022 | -0.17146 | 210 ft | 4 kts | 250° |
| 2026-05-04 11:50 | 5.60033 | -0.17132 | 217 ft | 1 kts | 202° |
| 2026-05-04 11:50 | 5.60037 | -0.17131 | 216 ft | 0 kts | 202° |
| 2026-05-04 11:53 | 5.60023 | -0.17137 | 217 ft | 7 kts | 203° |
| 2026-05-04 11:53 | 5.59937 | -0.17175 | 210 ft | 18 kts | 204° |
| 2026-05-04 11:53 | 5.59805 | -0.17227 | 215 ft | 22 kts | 203° |
| 2026-05-04 11:55 | 5.59218 | -0.17259 | 198 ft | 0 kts | 21° |
| 2026-05-04 11:55 | 5.59220 | -0.17258 | 195 ft | 2 kts | 21° |
| 2026-05-04 11:56 | 5.59452 | -0.17163 | 214 ft | 75 kts | 22° |
| 2026-05-04 11:56 | 5.60162 | -0.16867 | 216 ft | 144 kts | 22° |
| 2026-05-04 11:56 | 5.61263 | -0.16406 | 323 ft | 191 kts | 24° |
| 2026-05-04 11:56 | 5.62498 | -0.15876 | 1243 ft | 189 kts | 26° |
| 2026-05-04 11:57 | 5.63685 | -0.15336 | 2166 ft | 192 kts | 26° |
| 2026-05-04 11:57 | 5.64972 | -0.14757 | 2621 ft | 214 kts | 25° |
| 2026-05-04 11:57 | 5.66417 | -0.14112 | 2990 ft | 243 kts | 27° |
| 2026-05-04 11:57 | 5.67762 | -0.13064 | 3710 ft | 248 kts | 53° |
| 2026-05-04 11:58 | 5.68660 | -0.11540 | 4409 ft | 261 kts | 66° |
| 2026-05-04 11:58 | 5.69443 | -0.09867 | 5270 ft | 265 kts | 66° |
| 2026-05-04 11:58 | 5.70199 | -0.08193 | 6329 ft | 261 kts | 67° |
| 2026-05-04 11:58 | 5.70937 | -0.06527 | 7270 ft | 262 kts | 68° |
| 2026-05-04 11:59 | 5.71670 | -0.04847 | 8131 ft | 263 kts | 68° |
| 2026-05-04 11:59 | 5.72407 | -0.03163 | 9049 ft | 263 kts | 68° |
| 2026-05-04 11:59 | 5.73140 | -0.01479 | 9911 ft | 264 kts | 68° |
| 2026-05-04 11:59 | 5.73884 | 0.00236 | 10522 ft | 275 kts | 69° |
| 2026-05-04 12:00 | 5.74673 | 0.02059 | 10815 ft | 295 kts | 68° |
| 2026-05-04 12:00 | 5.75516 | 0.04008 | 11153 ft | 312 kts | 68° |
| 2026-05-04 12:00 | 5.76394 | 0.06039 | 11684 ft | 320 kts | 68° |
| 2026-05-04 12:00 | 5.77282 | 0.08092 | 12379 ft | 322 kts | 68° |
| 2026-05-04 12:01 | 5.78180 | 0.10173 | 13016 ft | 327 kts | 68° |
| 2026-05-04 12:01 | 5.79088 | 0.12273 | 13686 ft | 330 kts | 68° |
| 2026-05-04 12:02 | 5.84767 | 0.25425 | 16874 ft | 354 kts | 68° |
| 2026-05-04 12:03 | 5.85591 | 0.27758 | 17347 ft | 356 kts | 78° |
| 2026-05-04 12:03 | 5.86149 | 0.30197 | 17828 ft | 360 kts | 77° |
| 2026-05-04 12:03 | 5.86758 | 0.32646 | 18296 ft | 364 kts | 77° |
| 2026-05-04 12:03 | 5.87378 | 0.35087 | 18683 ft | 367 kts | 76° |
| 2026-05-04 12:04 | 5.88023 | 0.37582 | 19063 ft | 371 kts | 76° |
| 2026-05-04 12:04 | 5.88686 | 0.40131 | 19456 ft | 374 kts | 76° |
| 2026-05-04 12:04 | 5.89341 | 0.42639 | 19830 ft | 378 kts | 76° |
| 2026-05-04 12:04 | 5.90010 | 0.45200 | 20212 ft | 381 kts | 76° |
| 2026-05-04 12:05 | 5.90686 | 0.47786 | 20584 ft | 384 kts | 76° |
| 2026-05-04 12:05 | 5.91366 | 0.50389 | 20950 ft | 388 kts | 76° |
| 2026-05-04 12:05 | 5.92053 | 0.53018 | 21304 ft | 391 kts | 76° |
| 2026-05-04 12:05 | 5.92747 | 0.55675 | 21670 ft | 394 kts | 76° |
| 2026-05-04 12:06 | 5.93445 | 0.58349 | 22042 ft | 397 kts | 76° |
| 2026-05-04 12:06 | 5.94148 | 0.61042 | 22395 ft | 400 kts | 76° |
| 2026-05-04 12:06 | 5.94856 | 0.63753 | 22758 ft | 403 kts | 76° |
| 2026-05-04 12:06 | 5.95569 | 0.66486 | 23103 ft | 406 kts | 76° |
| 2026-05-04 12:07 | 5.96287 | 0.69238 | 23429 ft | 409 kts | 76° |
| 2026-05-04 12:07 | 5.97011 | 0.72011 | 23716 ft | 412 kts | 76° |
| 2026-05-04 12:07 | 5.97741 | 0.74810 | 23997 ft | 415 kts | 76° |
| 2026-05-04 12:07 | 5.98476 | 0.77616 | 24297 ft | 417 kts | 74° |
| 2026-05-04 12:08 | 5.99468 | 0.80353 | 24591 ft | 419 kts | 69° |
| 2026-05-04 12:08 | 6.00512 | 0.83095 | 24874 ft | 421 kts | 70° |
| 2026-05-04 12:08 | 6.01544 | 0.85859 | 25163 ft | 423 kts | 70° |
| 2026-05-04 12:08 | 6.02569 | 0.88634 | 25451 ft | 425 kts | 70° |
| 2026-05-04 12:09 | 6.03596 | 0.91429 | 25735 ft | 427 kts | 70° |
| 2026-05-04 12:09 | 6.04625 | 0.94233 | 26021 ft | 429 kts | 70° |
| 2026-05-04 12:09 | 6.05660 | 0.97055 | 26308 ft | 431 kts | 70° |
| 2026-05-04 12:09 | 6.06726 | 0.99879 | 26589 ft | 434 kts | 66° |
| 2026-05-04 12:10 | 6.07950 | 1.02656 | 26872 ft | 435 kts | 66° |
| 2026-05-04 12:10 | 6.09170 | 1.05452 | 27139 ft | 438 kts | 66° |
| 2026-05-04 12:10 | 6.10386 | 1.08264 | 27410 ft | 440 kts | 67° |
| 2026-05-04 12:10 | 6.11604 | 1.11087 | 27684 ft | 442 kts | 67° |
| 2026-05-04 12:11 | 6.12827 | 1.13926 | 27943 ft | 444 kts | 67° |
| 2026-05-04 12:11 | 6.14056 | 1.16780 | 28205 ft | 446 kts | 67° |
| 2026-05-04 12:11 | 6.15289 | 1.19644 | 28470 ft | 448 kts | 67° |
| 2026-05-04 12:11 | 6.16527 | 1.22519 | 28726 ft | 450 kts | 67° |
| 2026-05-04 12:12 | 6.17770 | 1.25418 | 28973 ft | 452 kts | 68° |
| 2026-05-04 12:12 | 6.18620 | 1.28449 | 29200 ft | 452 kts | 82° |
| 2026-05-04 12:12 | 6.19114 | 1.31574 | 29429 ft | 455 kts | 80° |
| 2026-05-04 12:12 | 6.19643 | 1.34719 | 29638 ft | 457 kts | 81° |
| 2026-05-04 12:13 | 6.20157 | 1.37877 | 29894 ft | 459 kts | 81° |
| 2026-05-04 12:14 | 6.23733 | 1.60338 | 31195 ft | 471 kts | 81° |
| 2026-05-04 12:15 | 6.24251 | 1.63597 | 31370 ft | 473 kts | 81° |
| 2026-05-04 12:15 | 6.24769 | 1.66865 | 31539 ft | 475 kts | 81° |
| 2026-05-04 12:15 | 6.25290 | 1.70147 | 31709 ft | 477 kts | 81° |
| 2026-05-04 12:15 | 6.25813 | 1.73442 | 31880 ft | 478 kts | 81° |
| 2026-05-04 12:16 | 6.26337 | 1.76751 | 32054 ft | 480 kts | 81° |
| 2026-05-04 12:16 | 6.26863 | 1.80071 | 32214 ft | 482 kts | 81° |
| 2026-05-04 12:16 | 6.27383 | 1.83353 | 32428 ft | 482 kts | 81° |
| 2026-05-04 12:16 | 6.27916 | 1.86721 | 32640 ft | 482 kts | 81° |
| 2026-05-04 12:17 | 6.28435 | 1.90005 | 32859 ft | 482 kts | 81° |
| 2026-05-04 12:17 | 6.28962 | 1.93330 | 33081 ft | 482 kts | 81° |
| 2026-05-04 12:17 | 6.29488 | 1.96659 | 33302 ft | 482 kts | 81° |
| 2026-05-04 12:17 | 6.30014 | 1.99987 | 33534 ft | 482 kts | 81° |
| 2026-05-04 12:18 | 6.30539 | 2.03310 | 33771 ft | 481 kts | 81° |
| 2026-05-04 12:18 | 6.31063 | 2.06629 | 33987 ft | 481 kts | 80° |
| 2026-05-04 12:18 | 6.31587 | 2.09955 | 34179 ft | 481 kts | 81° |
| 2026-05-04 12:18 | 6.32110 | 2.13265 | 34371 ft | 480 kts | 80° |
| 2026-05-04 12:19 | 6.32633 | 2.16585 | 34573 ft | 480 kts | 80° |
| 2026-05-04 12:19 | 6.33154 | 2.19888 | 34774 ft | 479 kts | 80° |
| 2026-05-04 12:19 | 6.33676 | 2.23201 | 34918 ft | 479 kts | 80° |
| 2026-05-04 12:19 | 6.34197 | 2.26511 | 34950 ft | 479 kts | 80° |
| 2026-05-04 12:20 | 6.35059 | 2.31989 | 34941 ft | 477 kts | 80° |
| 2026-05-04 12:20 | 6.36110 | 2.38570 | 34940 ft | 476 kts | 77° |
| 2026-05-04 12:21 | 6.38238 | 2.44840 | 34933 ft | 475 kts | 69° |
| 2026-05-04 12:21 | 6.40490 | 2.51091 | 34943 ft | 475 kts | 69° |
| 2026-05-04 12:22 | 6.42756 | 2.57330 | 34946 ft | 475 kts | 69° |
| 2026-05-04 12:22 | 6.45022 | 2.63570 | 34951 ft | 475 kts | 69° |
| 2026-05-04 12:23 | 6.47286 | 2.69807 | 34954 ft | 475 kts | 69° |
| 2026-05-04 12:23 | 6.49569 | 2.76030 | 34960 ft | 474 kts | 68° |
| 2026-05-04 12:24 | 6.51899 | 2.82242 | 34963 ft | 474 kts | 68° |
| 2026-05-04 12:24 | 6.54220 | 2.88446 | 34961 ft | 474 kts | 68° |
| 2026-05-04 12:25 | 6.56544 | 2.94662 | 34967 ft | 474 kts | 68° |
| 2026-05-04 12:25 | 6.58862 | 3.00866 | 34972 ft | 474 kts | 68° |
| 2026-05-04 12:26 | 6.59249 | 3.01902 | 34971 ft | 474 kts | 68° |
| 2026-05-04 12:26 | 6.61573 | 3.08123 | 34978 ft | 474 kts | 68° |
| 2026-05-04 12:27 | 6.63890 | 3.14329 | 34984 ft | 474 kts | 68° |
| 2026-05-04 12:27 | 6.66192 | 3.20497 | 34987 ft | 474 kts | 68° |
| 2026-05-04 12:28 | 6.68508 | 3.26705 | 34991 ft | 474 kts | 68° |
| 2026-05-04 12:28 | 6.70635 | 3.32972 | 34971 ft | 474 kts | 80° |
| 2026-05-04 12:29 | 6.71226 | 3.39586 | 34981 ft | 476 kts | 84° |
| 2026-05-04 12:29 | 6.71745 | 3.46227 | 34983 ft | 476 kts | 85° |
| 2026-05-04 12:30 | 6.72233 | 3.52868 | 34976 ft | 476 kts | 85° |
| 2026-05-04 12:30 | 6.72717 | 3.59506 | 34972 ft | 476 kts | 85° |
| 2026-05-04 12:31 | 6.73199 | 3.66140 | 34967 ft | 476 kts | 85° |
| 2026-05-04 12:31 | 6.73681 | 3.72779 | 34968 ft | 476 kts | 85° |
| 2026-05-04 12:32 | 6.74402 | 3.82734 | 34956 ft | 476 kts | 85° |
| 2026-05-04 12:33 | 6.74881 | 3.89370 | 34960 ft | 476 kts | 85° |
| 2026-05-04 12:33 | 6.75360 | 3.96004 | 34960 ft | 475 kts | 85° |
| 2026-05-04 12:34 | 6.75837 | 4.02633 | 34959 ft | 475 kts | 85° |
| 2026-05-04 12:34 | 6.76313 | 4.09267 | 34955 ft | 475 kts | 85° |
| 2026-05-04 12:35 | 6.76789 | 4.15900 | 34956 ft | 475 kts | 85° |
| 2026-05-04 12:35 | 6.77263 | 4.22526 | 34952 ft | 475 kts | 85° |
| 2026-05-04 12:36 | 6.77737 | 4.29163 | 34951 ft | 475 kts | 85° |
| 2026-05-04 12:36 | 6.78210 | 4.35794 | 34951 ft | 475 kts | 85° |
| 2026-05-04 12:37 | 6.78682 | 4.42425 | 34952 ft | 475 kts | 85° |
| 2026-05-04 12:37 | 6.79175 | 4.49054 | 34950 ft | 475 kts | 85° |
| 2026-05-04 12:38 | 6.79667 | 4.55683 | 34947 ft | 475 kts | 85° |
| 2026-05-04 12:38 | 6.80157 | 4.62310 | 34948 ft | 475 kts | 85° |
| 2026-05-04 12:39 | 6.80646 | 4.68936 | 34944 ft | 475 kts | 85° |
| 2026-05-04 12:39 | 6.81134 | 4.75556 | 34946 ft | 475 kts | 85° |
| 2026-05-04 12:40 | 6.81618 | 4.82135 | 34941 ft | 474 kts | 85° |
| 2026-05-04 12:40 | 6.82104 | 4.88755 | 34945 ft | 474 kts | 85° |
| 2026-05-04 12:41 | 6.82575 | 4.95374 | 34942 ft | 474 kts | 86° |
| 2026-05-04 12:41 | 6.83005 | 5.01993 | 34941 ft | 474 kts | 85° |
| 2026-05-04 12:42 | 6.83437 | 5.08609 | 34936 ft | 474 kts | 85° |
| 2026-05-04 12:42 | 6.83870 | 5.15226 | 34935 ft | 474 kts | 85° |
| 2026-05-04 12:43 | 6.84301 | 5.21841 | 34936 ft | 474 kts | 86° |
| 2026-05-04 12:43 | 6.84732 | 5.28455 | 34932 ft | 474 kts | 85° |
| 2026-05-04 12:44 | 6.85161 | 5.35069 | 34935 ft | 474 kts | 86° |
| 2026-05-04 12:44 | 6.85590 | 5.41686 | 34930 ft | 474 kts | 85° |
| 2026-05-04 12:45 | 6.86017 | 5.48296 | 34927 ft | 474 kts | 86° |
| 2026-05-04 12:45 | 6.86444 | 5.54917 | 34928 ft | 474 kts | 86° |
| 2026-05-04 12:46 | 6.86870 | 5.61529 | 34927 ft | 474 kts | 86° |
| 2026-05-04 12:46 | 6.87295 | 5.68147 | 34926 ft | 474 kts | 86° |
| 2026-05-04 12:47 | 6.87719 | 5.74767 | 34928 ft | 474 kts | 86° |
| 2026-05-04 12:47 | 6.88142 | 5.81384 | 34924 ft | 474 kts | 86° |
| 2026-05-04 12:48 | 6.88565 | 5.87998 | 34925 ft | 474 kts | 86° |
| 2026-05-04 12:48 | 6.88992 | 5.94616 | 34921 ft | 474 kts | 85° |
| 2026-05-04 12:49 | 6.89426 | 6.01237 | 34923 ft | 474 kts | 86° |
| 2026-05-04 12:49 | 6.89859 | 6.07852 | 34921 ft | 474 kts | 86° |
| 2026-05-04 12:50 | 6.90291 | 6.14472 | 34922 ft | 474 kts | 86° |
| 2026-05-04 12:50 | 6.90722 | 6.21097 | 34915 ft | 474 kts | 86° |
| 2026-05-04 12:51 | 6.91152 | 6.27717 | 34917 ft | 474 kts | 86° |
| 2026-05-04 12:51 | 6.91579 | 6.34294 | 34914 ft | 474 kts | 86° |
| 2026-05-04 12:52 | 6.92008 | 6.40916 | 34915 ft | 474 kts | 86° |
| 2026-05-04 12:52 | 6.92434 | 6.47538 | 34914 ft | 474 kts | 86° |
| 2026-05-04 12:53 | 6.92858 | 6.54157 | 34914 ft | 474 kts | 86° |
| 2026-05-04 12:53 | 6.93282 | 6.60781 | 34904 ft | 474 kts | 86° |
| 2026-05-04 12:54 | 6.93705 | 6.67400 | 34905 ft | 474 kts | 86° |
| 2026-05-04 12:54 | 6.94127 | 6.74023 | 34905 ft | 474 kts | 86° |
| 2026-05-04 12:55 | 6.94548 | 6.80641 | 34903 ft | 474 kts | 86° |
| 2026-05-04 12:55 | 6.94969 | 6.87267 | 34905 ft | 474 kts | 86° |
| 2026-05-04 12:56 | 6.95388 | 6.93884 | 34907 ft | 474 kts | 86° |
| 2026-05-04 12:56 | 6.95806 | 7.00498 | 34908 ft | 474 kts | 86° |
| 2026-05-04 12:57 | 6.96223 | 7.07115 | 34911 ft | 473 kts | 86° |
| 2026-05-04 12:57 | 6.96634 | 7.13721 | 34912 ft | 473 kts | 86° |
| 2026-05-04 12:58 | 6.97043 | 7.20332 | 34913 ft | 473 kts | 86° |
| 2026-05-04 12:58 | 6.97448 | 7.26890 | 34913 ft | 473 kts | 86° |
| 2026-05-04 12:59 | 6.97854 | 7.33495 | 34916 ft | 473 kts | 86° |
| 2026-05-04 12:59 | 6.98260 | 7.40090 | 34911 ft | 472 kts | 86° |
| 2026-05-04 13:00 | 6.98664 | 7.46688 | 34913 ft | 472 kts | 86° |
| 2026-05-04 13:00 | 6.99067 | 7.53276 | 34911 ft | 472 kts | 86° |
| 2026-05-04 13:01 | 6.99471 | 7.59868 | 34911 ft | 471 kts | 86° |
| 2026-05-04 13:01 | 6.99880 | 7.66457 | 34906 ft | 471 kts | 86° |
| 2026-05-04 13:02 | 7.00287 | 7.73037 | 34898 ft | 471 kts | 86° |
| 2026-05-04 13:02 | 7.00683 | 7.79619 | 34897 ft | 471 kts | 86° |
| 2026-05-04 13:03 | 7.01078 | 7.86189 | 34893 ft | 470 kts | 86° |
| 2026-05-04 13:03 | 7.01472 | 7.92762 | 34894 ft | 470 kts | 86° |
| 2026-05-04 13:04 | 7.01865 | 7.99327 | 34892 ft | 470 kts | 86° |
| 2026-05-04 13:04 | 7.02257 | 8.05883 | 34891 ft | 469 kts | 86° |
| 2026-05-04 13:05 | 7.02645 | 8.12395 | 34888 ft | 469 kts | 86° |
| 2026-05-04 13:05 | 7.03034 | 8.18951 | 34889 ft | 469 kts | 86° |
| 2026-05-04 13:06 | 7.03423 | 8.25506 | 34883 ft | 469 kts | 86° |
| 2026-05-04 13:06 | 7.03810 | 8.32060 | 34885 ft | 469 kts | 86° |
| 2026-05-04 13:07 | 7.04197 | 8.38609 | 34882 ft | 469 kts | 86° |
| 2026-05-04 13:07 | 7.04582 | 8.45160 | 34885 ft | 469 kts | 86° |
| 2026-05-04 13:08 | 7.04967 | 8.51710 | 34885 ft | 469 kts | 86° |
| 2026-05-04 13:08 | 7.05350 | 8.58254 | 34885 ft | 469 kts | 86° |
| 2026-05-04 13:09 | 7.05733 | 8.64803 | 34884 ft | 469 kts | 86° |
| 2026-05-04 13:09 | 7.06115 | 8.71356 | 34882 ft | 469 kts | 86° |
| 2026-05-04 13:10 | 7.06434 | 8.76847 | 34886 ft | 469 kts | 86° |
| 2026-05-04 13:10 | 7.06814 | 8.83393 | 34881 ft | 469 kts | 86° |
| 2026-05-04 13:11 | 7.07193 | 8.89949 | 34880 ft | 469 kts | 86° |
| 2026-05-04 13:11 | 7.07572 | 8.96500 | 34884 ft | 469 kts | 86° |
| 2026-05-04 13:12 | 7.07912 | 9.03024 | 34886 ft | 470 kts | 85° |
| 2026-05-04 13:12 | 7.08323 | 9.09595 | 34877 ft | 471 kts | 86° |
| 2026-05-04 13:13 | 7.08703 | 9.16172 | 34873 ft | 471 kts | 86° |
| 2026-05-04 13:13 | 7.08931 | 9.22773 | 34876 ft | 472 kts | 88° |
| 2026-05-04 13:14 | 7.09129 | 9.29385 | 34873 ft | 472 kts | 88° |
| 2026-05-04 13:14 | 7.09327 | 9.35992 | 34872 ft | 472 kts | 88° |
| 2026-05-04 13:15 | 7.09524 | 9.42588 | 34870 ft | 471 kts | 88° |
| 2026-05-04 13:15 | 7.09722 | 9.49188 | 34871 ft | 471 kts | 88° |
| 2026-05-04 13:16 | 7.09914 | 9.55772 | 34872 ft | 471 kts | 88° |
| 2026-05-04 13:16 | 7.10109 | 9.62361 | 34870 ft | 470 kts | 87° |
| 2026-05-04 13:17 | 7.10301 | 9.68941 | 34868 ft | 470 kts | 87° |
| 2026-05-04 13:17 | 7.10493 | 9.75519 | 34871 ft | 470 kts | 87° |
| 2026-05-04 13:18 | 7.10684 | 9.82099 | 34871 ft | 470 kts | 87° |
| 2026-05-04 13:18 | 7.10874 | 9.88681 | 34867 ft | 470 kts | 87° |
| 2026-05-04 13:19 | 7.11061 | 9.95221 | 34874 ft | 470 kts | 87° |
| 2026-05-04 13:19 | 7.11249 | 10.01801 | 34870 ft | 470 kts | 87° |
| 2026-05-04 13:20 | 7.11437 | 10.08380 | 34872 ft | 470 kts | 87° |
| 2026-05-04 13:20 | 7.11623 | 10.14958 | 34874 ft | 470 kts | 87° |
| 2026-05-04 13:21 | 7.11808 | 10.21541 | 34872 ft | 471 kts | 87° |
| 2026-05-04 13:21 | 7.11982 | 10.28131 | 34873 ft | 471 kts | 87° |
| 2026-05-04 13:22 | 7.12157 | 10.34725 | 34873 ft | 471 kts | 87° |
| 2026-05-04 13:22 | 7.12331 | 10.41324 | 34873 ft | 472 kts | 87° |
| 2026-05-04 13:23 | 7.12504 | 10.47921 | 34873 ft | 472 kts | 87° |
| 2026-05-04 13:23 | 7.12676 | 10.54532 | 34876 ft | 472 kts | 87° |
| 2026-05-04 13:24 | 7.12847 | 10.61141 | 34878 ft | 472 kts | 87° |
| 2026-05-04 13:24 | 7.13018 | 10.67749 | 34879 ft | 473 kts | 88° |
| 2026-05-04 13:25 | 7.13272 | 10.77674 | 34891 ft | 473 kts | 88° |
| 2026-05-04 13:25 | 7.13440 | 10.84296 | 34899 ft | 473 kts | 88° |
| 2026-05-04 13:26 | 7.13608 | 10.90923 | 34902 ft | 473 kts | 88° |
| 2026-05-04 13:26 | 7.13774 | 10.97546 | 34907 ft | 473 kts | 88° |
| 2026-05-04 13:27 | 7.13940 | 11.04164 | 34909 ft | 472 kts | 87° |
| 2026-05-04 13:27 | 7.14104 | 11.10775 | 34910 ft | 472 kts | 87° |
| 2026-05-04 13:28 | 7.14267 | 11.17378 | 34909 ft | 472 kts | 87° |
| 2026-05-04 13:28 | 7.14429 | 11.23978 | 34908 ft | 471 kts | 87° |
| 2026-05-04 13:29 | 7.14590 | 11.30573 | 34902 ft | 471 kts | 87° |
| 2026-05-04 13:29 | 7.14750 | 11.37156 | 34903 ft | 471 kts | 87° |
| 2026-05-04 13:30 | 7.14909 | 11.43750 | 34901 ft | 471 kts | 87° |
| 2026-05-04 13:30 | 7.15067 | 11.50342 | 34902 ft | 471 kts | 87° |
| 2026-05-04 13:31 | 7.15225 | 11.56941 | 34901 ft | 471 kts | 87° |
| 2026-05-04 13:31 | 7.15381 | 11.63548 | 34907 ft | 472 kts | 87° |
| 2026-05-04 13:32 | 7.15537 | 11.70155 | 34910 ft | 472 kts | 87° |
| 2026-05-04 13:32 | 7.15693 | 11.76769 | 34917 ft | 473 kts | 87° |
| 2026-05-04 13:33 | 7.15874 | 11.83385 | 34925 ft | 472 kts | 86° |
| 2026-05-04 13:33 | 7.16149 | 11.89996 | 34925 ft | 473 kts | 86° |
| 2026-05-04 13:34 | 7.16414 | 11.96610 | 34930 ft | 473 kts | 86° |
| 2026-05-04 13:34 | 7.16653 | 12.03217 | 34941 ft | 473 kts | 86° |
| 2026-05-04 13:35 | 7.17069 | 12.13146 | 34931 ft | 473 kts | 86° |
| 2026-05-04 13:36 | 7.17331 | 12.19765 | 34925 ft | 473 kts | 86° |
| 2026-05-04 13:36 | 7.17591 | 12.26390 | 34922 ft | 473 kts | 86° |
| 2026-05-04 13:37 | 7.17850 | 12.33014 | 34915 ft | 474 kts | 86° |
| 2026-05-04 13:37 | 7.18109 | 12.39648 | 34914 ft | 474 kts | 86° |
| 2026-05-04 13:38 | 7.18366 | 12.46282 | 34908 ft | 474 kts | 86° |
| 2026-05-04 13:38 | 7.18623 | 12.52922 | 34907 ft | 475 kts | 86° |
| 2026-05-04 13:39 | 7.18880 | 12.59567 | 34902 ft | 475 kts | 86° |
| 2026-05-04 13:39 | 7.19135 | 12.66217 | 34897 ft | 475 kts | 86° |
| 2026-05-04 13:40 | 7.19390 | 12.72821 | 34896 ft | 475 kts | 87° |
| 2026-05-04 13:40 | 7.19645 | 12.79471 | 34897 ft | 476 kts | 86° |
| 2026-05-04 13:41 | 7.19900 | 12.86128 | 34893 ft | 476 kts | 87° |
| 2026-05-04 13:41 | 7.20154 | 12.92786 | 34890 ft | 476 kts | 87° |
| 2026-05-04 13:42 | 7.20533 | 13.02784 | 34888 ft | 476 kts | 87° |
| 2026-05-04 13:42 | 7.20784 | 13.09443 | 34891 ft | 476 kts | 87° |
| 2026-05-04 13:43 | 7.21035 | 13.16104 | 34888 ft | 476 kts | 87° |
| 2026-05-04 13:43 | 7.21284 | 13.22766 | 34888 ft | 476 kts | 87° |
| 2026-05-04 13:44 | 7.21533 | 13.29430 | 34924 ft | 476 kts | 87° |
| 2026-05-04 13:44 | 7.21780 | 13.36091 | 34960 ft | 476 kts | 87° |
| 2026-05-04 13:45 | 7.22027 | 13.42748 | 34990 ft | 476 kts | 87° |
| 2026-05-04 13:45 | 7.22272 | 13.49404 | 35012 ft | 475 kts | 87° |
| 2026-05-04 13:46 | 7.22518 | 13.56059 | 35024 ft | 475 kts | 87° |
| 2026-05-04 13:46 | 7.22763 | 13.62705 | 35017 ft | 475 kts | 87° |
| 2026-05-04 13:47 | 7.23006 | 13.69306 | 34997 ft | 475 kts | 87° |
| 2026-05-04 13:47 | 7.23250 | 13.75947 | 34968 ft | 474 kts | 87° |
| 2026-05-04 13:48 | 7.23492 | 13.82584 | 34937 ft | 474 kts | 87° |
| 2026-05-04 13:48 | 7.23733 | 13.89215 | 34909 ft | 474 kts | 87° |
| 2026-05-04 13:49 | 7.23974 | 13.95849 | 34904 ft | 474 kts | 87° |
| 2026-05-04 13:49 | 7.24214 | 14.02484 | 34903 ft | 474 kts | 87° |
| 2026-05-04 13:50 | 7.24452 | 14.09112 | 34905 ft | 474 kts | 87° |
| 2026-05-04 13:50 | 7.24689 | 14.15742 | 34898 ft | 473 kts | 87° |
| 2026-05-04 13:51 | 7.24926 | 14.22372 | 34897 ft | 473 kts | 87° |
| 2026-05-04 13:51 | 7.25161 | 14.28995 | 34892 ft | 473 kts | 87° |
| 2026-05-04 13:52 | 7.25512 | 14.38929 | 34883 ft | 473 kts | 87° |
| 2026-05-04 13:53 | 7.25745 | 14.45552 | 34876 ft | 473 kts | 86° |
| 2026-05-04 13:53 | 7.25974 | 14.52173 | 34873 ft | 473 kts | 87° |
| 2026-05-04 13:54 | 7.26317 | 14.62107 | 34865 ft | 473 kts | 87° |
| 2026-05-04 13:55 | 7.26657 | 14.72034 | 34854 ft | 472 kts | 87° |
| 2026-05-04 13:55 | 7.26995 | 14.81946 | 34851 ft | 472 kts | 87° |
| 2026-05-04 13:56 | 7.27181 | 14.87441 | 34848 ft | 472 kts | 87° |
| 2026-05-04 13:57 | 7.27515 | 14.97360 | 34839 ft | 472 kts | 87° |
| 2026-05-04 13:58 | 7.27957 | 15.10562 | 34832 ft | 471 kts | 87° |
| 2026-05-04 13:58 | 7.28286 | 15.20447 | 34829 ft | 471 kts | 87° |
| 2026-05-04 13:59 | 7.28503 | 15.27032 | 34827 ft | 470 kts | 87° |
| 2026-05-04 14:00 | 7.28828 | 15.36903 | 34825 ft | 470 kts | 87° |
| 2026-05-04 14:00 | 7.29150 | 15.46772 | 34824 ft | 470 kts | 87° |
| 2026-05-04 14:01 | 7.29238 | 15.53360 | 34822 ft | 471 kts | 89° |
| 2026-05-04 14:02 | 7.29303 | 15.63258 | 34818 ft | 471 kts | 88° |
| 2026-05-04 14:02 | 7.29347 | 15.69859 | 34814 ft | 471 kts | 88° |
| 2026-05-04 14:03 | 7.29330 | 15.76456 | 34805 ft | 471 kts | 88° |
| 2026-05-04 14:03 | 7.29432 | 15.83054 | 34810 ft | 471 kts | 88° |
| 2026-05-04 14:04 | 7.29474 | 15.92939 | 34815 ft | 470 kts | 88° |
| 2026-05-04 14:04 | 7.29537 | 15.99523 | 34795 ft | 470 kts | 88° |
| 2026-05-04 14:05 | 7.29608 | 16.09351 | 34795 ft | 470 kts | 89° |
| 2026-05-04 14:06 | 7.29648 | 16.15924 | 34793 ft | 469 kts | 89° |
| 2026-05-04 14:06 | 7.29686 | 16.22497 | 34782 ft | 469 kts | 89° |
| 2026-05-04 14:07 | 7.29724 | 16.29072 | 34779 ft | 469 kts | 89° |
| 2026-05-04 14:07 | 7.29741 | 16.35641 | 34776 ft | 469 kts | 90° |
| 2026-05-04 14:08 | 7.29608 | 16.42209 | 34772 ft | 469 kts | 90° |
| 2026-05-04 14:08 | 7.29489 | 16.48774 | 34774 ft | 469 kts | 90° |
| 2026-05-04 14:09 | 7.29310 | 16.58631 | 34768 ft | 469 kts | 90° |
| 2026-05-04 14:10 | 7.29129 | 16.68486 | 34766 ft | 469 kts | 90° |
| 2026-05-04 14:10 | 7.29008 | 16.75051 | 34768 ft | 469 kts | 90° |
| 2026-05-04 14:11 | 7.28885 | 16.81625 | 34766 ft | 469 kts | 90° |
| 2026-05-04 14:11 | 7.28699 | 16.91482 | 34765 ft | 469 kts | 90° |
| 2026-05-04 14:12 | 7.28574 | 16.98057 | 34762 ft | 469 kts | 90° |
| 2026-05-04 14:13 | 7.28385 | 17.07917 | 34761 ft | 470 kts | 90° |
| 2026-05-04 14:13 | 7.28257 | 17.14495 | 34761 ft | 470 kts | 90° |
| 2026-05-04 14:14 | 7.28130 | 17.21023 | 34758 ft | 469 kts | 90° |
| 2026-05-04 14:14 | 7.27974 | 17.30927 | 34760 ft | 470 kts | 90° |
| 2026-05-04 14:15 | 7.27770 | 17.44030 | 34756 ft | 469 kts | 90° |
| 2026-05-04 14:16 | 7.27615 | 17.53882 | 34759 ft | 469 kts | 90° |
| 2026-05-04 14:17 | 7.27457 | 17.63723 | 34758 ft | 468 kts | 90° |
| 2026-05-04 14:18 | 7.27298 | 17.73547 | 34758 ft | 468 kts | 90° |
| 2026-05-04 14:19 | 7.27082 | 17.86649 | 34758 ft | 468 kts | 90° |
| 2026-05-04 14:19 | 7.26973 | 17.93203 | 34759 ft | 468 kts | 90° |
| 2026-05-04 14:20 | 7.26863 | 17.99752 | 34758 ft | 468 kts | 90° |
| 2026-05-04 14:20 | 7.26752 | 18.06298 | 34760 ft | 468 kts | 90° |
| 2026-05-04 14:21 | 7.26583 | 18.16124 | 34757 ft | 468 kts | 90° |
| 2026-05-04 14:21 | 7.26469 | 18.22670 | 34757 ft | 468 kts | 90° |
| 2026-05-04 14:22 | 7.26355 | 18.29216 | 34757 ft | 468 kts | 91° |
| 2026-05-04 14:22 | 7.26240 | 18.35763 | 34758 ft | 468 kts | 91° |
| 2026-05-04 14:23 | 7.26065 | 18.45583 | 34756 ft | 468 kts | 91° |
| 2026-05-04 14:24 | 7.25948 | 18.52085 | 34758 ft | 467 kts | 91° |
| 2026-05-04 14:24 | 7.25829 | 18.58632 | 34759 ft | 467 kts | 91° |
| 2026-05-04 14:25 | 7.25710 | 18.65172 | 34760 ft | 467 kts | 91° |
| 2026-05-04 14:25 | 7.25529 | 18.74978 | 34761 ft | 467 kts | 91° |
| 2026-05-04 14:26 | 7.25408 | 18.81513 | 34761 ft | 467 kts | 91° |
| 2026-05-04 14:26 | 7.25285 | 18.88037 | 34759 ft | 466 kts | 91° |
| 2026-05-04 14:27 | 7.25162 | 18.94566 | 34764 ft | 466 kts | 91° |
| 2026-05-04 14:27 | 7.25037 | 19.01091 | 34763 ft | 466 kts | 91° |
| 2026-05-04 14:28 | 7.24912 | 19.07618 | 34766 ft | 466 kts | 91° |
| 2026-05-04 14:28 | 7.24786 | 19.14140 | 34764 ft | 466 kts | 91° |
| 2026-05-04 14:29 | 7.24531 | 19.27168 | 34766 ft | 465 kts | 91° |
| 2026-05-04 14:30 | 7.24403 | 19.33684 | 34766 ft | 465 kts | 91° |
| 2026-05-04 14:31 | 7.24208 | 19.43452 | 34767 ft | 465 kts | 91° |
| 2026-05-04 14:32 | 7.23945 | 19.56471 | 34774 ft | 465 kts | 91° |
| 2026-05-04 14:32 | 7.23812 | 19.62976 | 34772 ft | 465 kts | 91° |
| 2026-05-04 14:33 | 7.23679 | 19.69481 | 34772 ft | 465 kts | 91° |
| 2026-05-04 14:33 | 7.23544 | 19.75990 | 34775 ft | 465 kts | 91° |
| 2026-05-04 14:34 | 7.23409 | 19.82497 | 34775 ft | 465 kts | 91° |
| 2026-05-04 14:34 | 7.23273 | 19.88950 | 34781 ft | 464 kts | 91° |
| 2026-05-04 14:35 | 7.23136 | 19.95450 | 34781 ft | 464 kts | 91° |
| 2026-05-04 14:35 | 7.22998 | 20.01944 | 34779 ft | 464 kts | 91° |
| 2026-05-04 14:36 | 7.22859 | 20.08435 | 34782 ft | 464 kts | 91° |
| 2026-05-04 14:36 | 7.22719 | 20.14936 | 34778 ft | 464 kts | 91° |
| 2026-05-04 14:37 | 7.22579 | 20.21433 | 34785 ft | 464 kts | 91° |
| 2026-05-04 14:37 | 7.22437 | 20.27922 | 34783 ft | 464 kts | 91° |
| 2026-05-04 14:38 | 7.22294 | 20.34412 | 34782 ft | 463 kts | 91° |
| 2026-05-04 14:38 | 7.22151 | 20.40897 | 34786 ft | 464 kts | 91° |
| 2026-05-04 14:39 | 7.22004 | 20.47390 | 34785 ft | 463 kts | 90° |
| 2026-05-04 14:39 | 7.21849 | 20.53875 | 34799 ft | 464 kts | 91° |
| 2026-05-04 14:40 | 7.21642 | 20.63613 | 34785 ft | 464 kts | 91° |
| 2026-05-04 14:40 | 7.21495 | 20.70104 | 34787 ft | 464 kts | 91° |
| 2026-05-04 14:41 | 7.21347 | 20.76593 | 34784 ft | 464 kts | 91° |
| 2026-05-04 14:42 | 7.21074 | 20.89580 | 34783 ft | 464 kts | 90° |
| 2026-05-04 14:42 | 7.20960 | 20.96035 | 34783 ft | 464 kts | 90° |
| 2026-05-04 14:43 | 7.20840 | 21.02531 | 34782 ft | 464 kts | 90° |
| 2026-05-04 14:43 | 7.20718 | 21.09031 | 34780 ft | 464 kts | 90° |
| 2026-05-04 14:44 | 7.20595 | 21.15527 | 34779 ft | 464 kts | 90° |
| 2026-05-04 14:44 | 7.20471 | 21.22033 | 34780 ft | 464 kts | 91° |
| 2026-05-04 14:45 | 7.20347 | 21.28536 | 34781 ft | 465 kts | 90° |
| 2026-05-04 14:45 | 7.20221 | 21.35039 | 34778 ft | 464 kts | 91° |
| 2026-05-04 14:46 | 7.20115 | 21.40488 | 34781 ft | 465 kts | 91° |
| 2026-05-04 14:46 | 7.19988 | 21.46992 | 34780 ft | 465 kts | 91° |
| 2026-05-04 14:47 | 7.19859 | 21.53495 | 34779 ft | 465 kts | 91° |
| 2026-05-04 14:47 | 7.19731 | 21.59956 | 34780 ft | 464 kts | 91° |
| 2026-05-04 14:48 | 7.19601 | 21.66461 | 34779 ft | 465 kts | 91° |
| 2026-05-04 14:48 | 7.19461 | 21.72963 | 34775 ft | 464 kts | 93° |
| 2026-05-04 14:49 | 7.18385 | 21.79373 | 34770 ft | 465 kts | 100° |
| 2026-05-04 14:49 | 7.17202 | 21.85767 | 34777 ft | 465 kts | 100° |
| 2026-05-04 14:50 | 7.16008 | 21.92164 | 34777 ft | 465 kts | 100° |
| 2026-05-04 14:50 | 7.14812 | 21.98562 | 34780 ft | 465 kts | 100° |
| 2026-05-04 14:51 | 7.13616 | 22.04957 | 34775 ft | 464 kts | 100° |
| 2026-05-04 14:51 | 7.12420 | 22.11349 | 34778 ft | 465 kts | 100° |
| 2026-05-04 14:52 | 7.11223 | 22.17736 | 34775 ft | 464 kts | 100° |
| 2026-05-04 14:52 | 7.10025 | 22.24128 | 34775 ft | 464 kts | 100° |
| 2026-05-04 14:53 | 7.08827 | 22.30514 | 34776 ft | 464 kts | 100° |
| 2026-05-04 14:53 | 7.07627 | 22.36901 | 34774 ft | 464 kts | 100° |
| 2026-05-04 14:54 | 7.06428 | 22.43281 | 34775 ft | 464 kts | 100° |
| 2026-05-04 14:54 | 7.05229 | 22.49661 | 34770 ft | 464 kts | 100° |
| 2026-05-04 14:55 | 7.04036 | 22.55999 | 34774 ft | 464 kts | 100° |
| 2026-05-04 14:55 | 7.02835 | 22.62372 | 34769 ft | 463 kts | 100° |
| 2026-05-04 14:56 | 7.01628 | 22.68778 | 34770 ft | 463 kts | 100° |
| 2026-05-04 14:56 | 7.00436 | 22.75095 | 34771 ft | 462 kts | 100° |
| 2026-05-04 14:57 | 6.99237 | 22.81445 | 34776 ft | 462 kts | 100° |
| 2026-05-04 14:57 | 6.98039 | 22.87787 | 34776 ft | 461 kts | 101° |
| 2026-05-04 14:58 | 6.96842 | 22.94122 | 34772 ft | 461 kts | 101° |
| 2026-05-04 14:58 | 6.95644 | 23.00452 | 34776 ft | 461 kts | 101° |
| 2026-05-04 14:59 | 6.94444 | 23.06786 | 34774 ft | 460 kts | 100° |
| 2026-05-04 15:00 | 6.92648 | 23.16267 | 34775 ft | 460 kts | 100° |
| 2026-05-04 15:00 | 6.91450 | 23.22583 | 34778 ft | 459 kts | 100° |
| 2026-05-04 15:01 | 6.89653 | 23.32044 | 34774 ft | 459 kts | 100° |
| 2026-05-04 15:01 | 6.88454 | 23.38350 | 34776 ft | 458 kts | 100° |
| 2026-05-04 15:02 | 6.87256 | 23.44652 | 34779 ft | 458 kts | 100° |
| 2026-05-04 15:02 | 6.86058 | 23.50943 | 34779 ft | 458 kts | 100° |
| 2026-05-04 15:03 | 6.84860 | 23.57235 | 34775 ft | 458 kts | 100° |
| 2026-05-04 15:03 | 6.83662 | 23.63516 | 34780 ft | 457 kts | 100° |
| 2026-05-04 15:04 | 6.82465 | 23.69800 | 34774 ft | 457 kts | 100° |
| 2026-05-04 15:04 | 6.81278 | 23.76047 | 34774 ft | 457 kts | 100° |
| 2026-05-04 15:05 | 6.80073 | 23.82325 | 34766 ft | 457 kts | 100° |
| 2026-05-04 15:05 | 6.78871 | 23.88603 | 34775 ft | 457 kts | 100° |
| 2026-05-04 15:06 | 6.77670 | 23.94887 | 34775 ft | 457 kts | 100° |
| 2026-05-04 15:07 | 6.75866 | 24.04303 | 34774 ft | 457 kts | 100° |
| 2026-05-04 15:07 | 6.74663 | 24.10585 | 34773 ft | 457 kts | 100° |
| 2026-05-04 15:08 | 6.73459 | 24.16862 | 34778 ft | 457 kts | 100° |
| 2026-05-04 15:08 | 6.72254 | 24.23138 | 34775 ft | 457 kts | 100° |
| 2026-05-04 15:09 | 6.71048 | 24.29414 | 34775 ft | 456 kts | 100° |
| 2026-05-04 15:09 | 6.69844 | 24.35679 | 34776 ft | 456 kts | 100° |
| 2026-05-04 15:10 | 6.68035 | 24.45083 | 34777 ft | 456 kts | 100° |
| 2026-05-04 15:11 | 6.66226 | 24.54476 | 34774 ft | 456 kts | 100° |
| 2026-05-04 15:11 | 6.65020 | 24.60737 | 34777 ft | 456 kts | 100° |
| 2026-05-04 15:12 | 6.63813 | 24.66991 | 34777 ft | 455 kts | 100° |
| 2026-05-04 15:12 | 6.62606 | 24.73243 | 34773 ft | 455 kts | 100° |
| 2026-05-04 15:13 | 6.61407 | 24.79453 | 34774 ft | 455 kts | 100° |
| 2026-05-04 15:13 | 6.60191 | 24.85742 | 34776 ft | 455 kts | 100° |
| 2026-05-04 15:14 | 6.58982 | 24.91996 | 34780 ft | 455 kts | 100° |
| 2026-05-04 15:14 | 6.57781 | 24.98200 | 34779 ft | 455 kts | 100° |
| 2026-05-04 15:15 | 6.56570 | 25.04449 | 34779 ft | 455 kts | 100° |
| 2026-05-04 15:15 | 6.55360 | 25.10692 | 34780 ft | 455 kts | 101° |
| 2026-05-04 15:16 | 6.53542 | 25.20063 | 34783 ft | 455 kts | 100° |
| 2026-05-04 15:17 | 6.51724 | 25.29427 | 34783 ft | 455 kts | 101° |
| 2026-05-04 15:17 | 6.49903 | 25.38793 | 34781 ft | 455 kts | 101° |
| 2026-05-04 15:18 | 6.48690 | 25.45028 | 34781 ft | 455 kts | 101° |
| 2026-05-04 15:19 | 6.46869 | 25.54383 | 34784 ft | 455 kts | 101° |
| 2026-05-04 15:19 | 6.45044 | 25.63744 | 34780 ft | 455 kts | 101° |
| 2026-05-04 15:20 | 6.43827 | 25.69986 | 34785 ft | 455 kts | 101° |
| 2026-05-04 15:20 | 6.42610 | 25.76221 | 34781 ft | 455 kts | 101° |
| 2026-05-04 15:21 | 6.41391 | 25.82463 | 34781 ft | 455 kts | 101° |
| 2026-05-04 15:22 | 6.39568 | 25.91783 | 34781 ft | 455 kts | 101° |
| 2026-05-04 15:22 | 6.37738 | 26.01137 | 34783 ft | 455 kts | 101° |
| 2026-05-04 15:23 | 6.36516 | 26.07378 | 34783 ft | 455 kts | 101° |
| 2026-05-04 15:23 | 6.35294 | 26.13615 | 34786 ft | 455 kts | 101° |
| 2026-05-04 15:24 | 6.32847 | 26.26089 | 34783 ft | 455 kts | 101° |
| 2026-05-04 15:25 | 6.31622 | 26.32330 | 34788 ft | 455 kts | 101° |
| 2026-05-04 15:26 | 6.29934 | 26.41705 | 34773 ft | 454 kts | 90° |
| 2026-05-04 15:26 | 6.30246 | 26.44842 | 34793 ft | 452 kts | 78° |
| 2026-05-04 15:26 | 6.31585 | 26.51042 | 34787 ft | 455 kts | 77° |
| 2026-05-04 15:27 | 6.33730 | 26.60330 | 34784 ft | 455 kts | 77° |
| 2026-05-04 15:28 | 6.35909 | 26.69613 | 34779 ft | 455 kts | 77° |
| 2026-05-04 15:29 | 6.38088 | 26.78898 | 34777 ft | 455 kts | 77° |
| 2026-05-04 15:30 | 6.43171 | 27.00592 | 34778 ft | 456 kts | 77° |
| 2026-05-04 15:31 | 6.45339 | 27.09859 | 34775 ft | 456 kts | 77° |
| 2026-05-04 15:32 | 6.48963 | 27.25369 | 34774 ft | 456 kts | 77° |
| 2026-05-04 15:34 | 6.52584 | 27.40888 | 34778 ft | 456 kts | 77° |
| 2026-05-04 15:34 | 6.54755 | 27.50201 | 34776 ft | 456 kts | 77° |
| 2026-05-04 15:35 | 6.56690 | 27.58508 | 34778 ft | 456 kts | 77° |
| 2026-05-04 15:36 | 6.58848 | 27.67782 | 34775 ft | 456 kts | 77° |
| 2026-05-04 15:36 | 6.60301 | 27.74032 | 34777 ft | 456 kts | 77° |
| 2026-05-04 15:37 | 6.61745 | 27.80245 | 34777 ft | 456 kts | 77° |
| 2026-05-04 15:37 | 6.63188 | 27.86460 | 34775 ft | 456 kts | 77° |
| 2026-05-04 15:38 | 6.64621 | 27.92637 | 34775 ft | 457 kts | 77° |
| 2026-05-04 15:38 | 6.66064 | 27.98856 | 34774 ft | 457 kts | 77° |
| 2026-05-04 15:39 | 6.67509 | 28.05086 | 34773 ft | 457 kts | 77° |
| 2026-05-04 15:40 | 6.69673 | 28.14431 | 34771 ft | 457 kts | 77° |
| 2026-05-04 15:40 | 6.71115 | 28.20658 | 34771 ft | 457 kts | 77° |
| 2026-05-04 15:41 | 6.72557 | 28.26891 | 34774 ft | 457 kts | 77° |
| 2026-05-04 15:41 | 6.73998 | 28.33127 | 34773 ft | 457 kts | 77° |
| 2026-05-04 15:42 | 6.75439 | 28.39361 | 34769 ft | 457 kts | 77° |
| 2026-05-04 15:42 | 6.76878 | 28.45590 | 34770 ft | 457 kts | 77° |
| 2026-05-04 15:43 | 6.78314 | 28.51815 | 34768 ft | 457 kts | 77° |
| 2026-05-04 15:43 | 6.79753 | 28.58053 | 34770 ft | 458 kts | 77° |
| 2026-05-04 15:44 | 6.81191 | 28.64293 | 34767 ft | 458 kts | 77° |
| 2026-05-04 15:44 | 6.82628 | 28.70533 | 34765 ft | 458 kts | 77° |
| 2026-05-04 15:45 | 6.84066 | 28.76779 | 34766 ft | 458 kts | 77° |
| 2026-05-04 15:45 | 6.85505 | 28.83029 | 34769 ft | 458 kts | 77° |
| 2026-05-04 15:46 | 6.86941 | 28.89279 | 34769 ft | 458 kts | 77° |
| 2026-05-04 15:46 | 6.88377 | 28.95527 | 34766 ft | 458 kts | 77° |
| 2026-05-04 15:47 | 6.89813 | 29.01779 | 34765 ft | 459 kts | 77° |
| 2026-05-04 15:47 | 6.91248 | 29.08034 | 34766 ft | 458 kts | 77° |
| 2026-05-04 15:48 | 6.92685 | 29.14296 | 34770 ft | 459 kts | 77° |
| 2026-05-04 15:48 | 6.94837 | 29.23690 | 34766 ft | 460 kts | 77° |
| 2026-05-04 15:49 | 6.96274 | 29.29963 | 34767 ft | 460 kts | 77° |
| 2026-05-04 15:49 | 6.97699 | 29.36190 | 34767 ft | 460 kts | 77° |
| 2026-05-04 15:50 | 6.99133 | 29.42463 | 34767 ft | 460 kts | 77° |
| 2026-05-04 15:50 | 7.00567 | 29.48734 | 34763 ft | 460 kts | 77° |
| 2026-05-04 15:51 | 7.02000 | 29.55010 | 34766 ft | 461 kts | 77° |
| 2026-05-04 15:51 | 7.03436 | 29.61299 | 34763 ft | 461 kts | 77° |
| 2026-05-04 15:52 | 7.04871 | 29.67589 | 34765 ft | 461 kts | 77° |
| 2026-05-04 15:52 | 7.06305 | 29.73877 | 34766 ft | 461 kts | 77° |
| 2026-05-04 15:53 | 7.07739 | 29.80169 | 34765 ft | 461 kts | 77° |
| 2026-05-04 15:53 | 7.09172 | 29.86470 | 34766 ft | 462 kts | 77° |
| 2026-05-04 15:54 | 7.10605 | 29.92770 | 34765 ft | 462 kts | 77° |
| 2026-05-04 15:54 | 7.12038 | 29.99072 | 34765 ft | 462 kts | 77° |
| 2026-05-04 15:55 | 7.13461 | 30.05331 | 34766 ft | 461 kts | 77° |
| 2026-05-04 15:55 | 7.14890 | 30.11628 | 34768 ft | 462 kts | 77° |
| 2026-05-04 15:56 | 7.16321 | 30.17934 | 34769 ft | 462 kts | 77° |
| 2026-05-04 15:56 | 7.17752 | 30.24242 | 34772 ft | 462 kts | 77° |
| 2026-05-04 15:57 | 7.19178 | 30.30547 | 34756 ft | 462 kts | 77° |
| 2026-05-04 15:57 | 7.20550 | 30.36867 | 34775 ft | 462 kts | 76° |
| 2026-05-04 15:58 | 7.22029 | 30.43158 | 34773 ft | 462 kts | 77° |
| 2026-05-04 15:58 | 7.23453 | 30.49464 | 34776 ft | 462 kts | 77° |
| 2026-05-04 15:59 | 7.24889 | 30.55776 | 34775 ft | 462 kts | 77° |
| 2026-05-04 15:59 | 7.26314 | 30.62084 | 34775 ft | 462 kts | 77° |
| 2026-05-04 16:00 | 7.27737 | 30.68391 | 34772 ft | 462 kts | 77° |
| 2026-05-04 16:00 | 7.29161 | 30.74703 | 34771 ft | 462 kts | 77° |
| 2026-05-04 16:01 | 7.30583 | 30.81011 | 34776 ft | 462 kts | 77° |
| 2026-05-04 16:01 | 7.32006 | 30.87327 | 34775 ft | 462 kts | 77° |
| 2026-05-04 16:02 | 7.33417 | 30.93594 | 34771 ft | 462 kts | 77° |
| 2026-05-04 16:03 | 7.35547 | 31.03064 | 34771 ft | 462 kts | 77° |
| 2026-05-04 16:03 | 7.36965 | 31.09376 | 34774 ft | 462 kts | 77° |
| 2026-05-04 16:04 | 7.38385 | 31.15697 | 34769 ft | 462 kts | 77° |
| 2026-05-04 16:04 | 7.40511 | 31.25174 | 34774 ft | 463 kts | 77° |
| 2026-05-04 16:05 | 7.41928 | 31.31496 | 34775 ft | 463 kts | 77° |
| 2026-05-04 16:06 | 7.44054 | 31.40984 | 34775 ft | 463 kts | 77° |
| 2026-05-04 16:07 | 7.46884 | 31.53632 | 34774 ft | 463 kts | 77° |
| 2026-05-04 16:08 | 7.49708 | 31.66275 | 34773 ft | 462 kts | 77° |
| 2026-05-04 16:09 | 7.53231 | 31.82073 | 34774 ft | 462 kts | 77° |
| 2026-05-04 16:10 | 7.56044 | 31.94703 | 34774 ft | 462 kts | 77° |
| 2026-05-04 16:11 | 7.58854 | 32.07341 | 34775 ft | 462 kts | 77° |
| 2026-05-04 16:12 | 7.63065 | 32.26312 | 34779 ft | 462 kts | 77° |
| 2026-05-04 16:13 | 7.65867 | 32.38957 | 34774 ft | 462 kts | 77° |
| 2026-05-04 16:14 | 7.68665 | 32.51605 | 34777 ft | 462 kts | 77° |
| 2026-05-04 16:16 | 7.72150 | 32.67405 | 34782 ft | 462 kts | 77° |
| 2026-05-04 16:17 | 7.75629 | 32.83209 | 34791 ft | 461 kts | 77° |
| 2026-05-04 16:18 | 7.78396 | 32.95798 | 34801 ft | 461 kts | 77° |
| 2026-05-04 16:19 | 7.81861 | 33.11584 | 34813 ft | 461 kts | 77° |
| 2026-05-04 16:20 | 7.85144 | 33.27427 | 34821 ft | 462 kts | 75° |
| 2026-05-04 16:22 | 7.88681 | 33.43267 | 34833 ft | 463 kts | 78° |
| 2026-05-04 16:23 | 7.92542 | 33.61253 | 34835 ft | 464 kts | 78° |
| 2026-05-04 16:25 | 7.96634 | 33.80360 | 34831 ft | 465 kts | 78° |
| 2026-05-04 16:26 | 8.01403 | 34.02683 | 34829 ft | 465 kts | 78° |
| 2026-05-04 16:28 | 8.04794 | 34.18603 | 34814 ft | 464 kts | 78° |
| 2026-05-04 16:29 | 8.09558 | 34.40873 | 34832 ft | 464 kts | 78° |
| 2026-05-04 16:31 | 8.12970 | 34.56788 | 34846 ft | 464 kts | 78° |
| 2026-05-04 16:32 | 8.17228 | 34.75843 | 34882 ft | 464 kts | 77° |
| 2026-05-04 16:33 | 8.20077 | 34.88535 | 34911 ft | 463 kts | 77° |
| 2026-05-04 16:34 | 8.22215 | 34.98043 | 34925 ft | 463 kts | 78° |
| 2026-05-04 16:35 | 8.26444 | 35.17067 | 34953 ft | 462 kts | 78° |
| 2026-05-04 16:36 | 8.28562 | 35.26583 | 34957 ft | 464 kts | 77° |
| 2026-05-04 16:37 | 8.30681 | 35.36121 | 34964 ft | 465 kts | 77° |
| 2026-05-04 16:38 | 8.33506 | 35.48825 | 34965 ft | 465 kts | 77° |
| 2026-05-04 16:39 | 8.37041 | 35.64770 | 34979 ft | 466 kts | 77° |
| 2026-05-04 16:40 | 8.39880 | 35.77528 | 34983 ft | 466 kts | 77° |
| 2026-05-04 16:41 | 8.43420 | 35.93469 | 34987 ft | 465 kts | 77° |
| 2026-05-04 16:43 | 8.46969 | 36.09381 | 35000 ft | 465 kts | 77° |
| 2026-05-04 16:43 | 8.49104 | 36.18931 | 35004 ft | 464 kts | 77° |
| 2026-05-04 16:45 | 8.53356 | 36.37953 | 35026 ft | 463 kts | 77° |
| 2026-05-04 16:46 | 8.57052 | 36.53792 | 35025 ft | 463 kts | 76° |
| 2026-05-04 16:47 | 8.60243 | 36.66394 | 35031 ft | 463 kts | 76° |
| 2026-05-04 16:48 | 8.63418 | 36.79002 | 35041 ft | 463 kts | 76° |
| 2026-05-04 16:49 | 8.66588 | 36.91607 | 35052 ft | 462 kts | 76° |
| 2026-05-04 16:50 | 8.69748 | 37.04189 | 35057 ft | 461 kts | 76° |
| 2026-05-04 16:51 | 8.72113 | 37.13620 | 35070 ft | 462 kts | 76° |
| 2026-05-04 16:52 | 8.75261 | 37.26187 | 35090 ft | 461 kts | 76° |
| 2026-05-04 16:53 | 8.77614 | 37.35594 | 35109 ft | 460 kts | 76° |
| 2026-05-04 16:54 | 8.80731 | 37.48102 | 35152 ft | 460 kts | 76° |
| 2026-05-04 16:55 | 8.85428 | 37.66908 | 35200 ft | 460 kts | 76° |
| 2026-05-04 16:56 | 8.89328 | 37.82580 | 35233 ft | 459 kts | 76° |
| 2026-05-04 16:57 | 8.91644 | 37.91970 | 35245 ft | 459 kts | 76° |
| 2026-05-04 16:58 | 8.93950 | 38.01196 | 34855 ft | 440 kts | 76° |
| 2026-05-04 16:58 | 8.94690 | 38.04177 | 34634 ft | 436 kts | 76° |
| 2026-05-04 16:59 | 8.96160 | 38.10108 | 34182 ft | 433 kts | 76° |
| 2026-05-04 17:00 | 8.99065 | 38.21840 | 33197 ft | 427 kts | 76° |
| 2026-05-04 17:00 | 9.01208 | 38.30507 | 31973 ft | 422 kts | 76° |
| 2026-05-04 17:01 | 9.02628 | 38.36255 | 30967 ft | 419 kts | 76° |
| 2026-05-04 17:01 | 9.03561 | 38.40032 | 30363 ft | 417 kts | 75° |
| 2026-05-04 17:02 | 9.04289 | 38.42981 | 29820 ft | 415 kts | 76° |
| 2026-05-04 17:02 | 9.05676 | 38.48603 | 28871 ft | 408 kts | 75° |
| 2026-05-04 17:03 | 9.06359 | 38.51376 | 28426 ft | 405 kts | 75° |
| 2026-05-04 17:03 | 9.07039 | 38.54133 | 27981 ft | 402 kts | 75° |
| 2026-05-04 17:03 | 9.08312 | 38.59619 | 27082 ft | 398 kts | 76° |
| 2026-05-04 17:04 | 9.09566 | 38.65037 | 26240 ft | 393 kts | 76° |
| 2026-05-04 17:04 | 9.10806 | 38.70395 | 25405 ft | 390 kts | 76° |
| 2026-05-04 17:05 | 9.12036 | 38.75714 | 24580 ft | 387 kts | 76° |
| 2026-05-04 17:05 | 9.13259 | 38.81001 | 23761 ft | 385 kts | 76° |
| 2026-05-04 17:06 | 9.14790 | 38.86150 | 22828 ft | 380 kts | 67° |
| 2026-05-04 17:06 | 9.15755 | 38.88625 | 22462 ft | 376 kts | 69° |
| 2026-05-04 17:07 | 9.17597 | 38.93526 | 21723 ft | 369 kts | 69° |
| 2026-05-04 17:07 | 9.18194 | 38.95137 | 21473 ft | 367 kts | 69° |
| 2026-05-04 17:07 | 9.19372 | 38.98325 | 20981 ft | 363 kts | 69° |
| 2026-05-04 17:07 | 9.20245 | 39.00709 | 20626 ft | 360 kts | 69° |
| 2026-05-04 17:08 | 9.21119 | 39.03072 | 20281 ft | 357 kts | 68° |
| 2026-05-04 17:08 | 9.23670 | 39.07319 | 19534 ft | 350 kts | 56° |
| 2026-05-04 17:08 | 9.25007 | 39.09367 | 19213 ft | 347 kts | 57° |
| 2026-05-04 17:09 | 9.26321 | 39.11405 | 18874 ft | 344 kts | 56° |
| 2026-05-04 17:09 | 9.27625 | 39.13427 | 18529 ft | 342 kts | 56° |
| 2026-05-04 17:09 | 9.28921 | 39.15436 | 18178 ft | 339 kts | 56° |
| 2026-05-04 17:10 | 9.31003 | 39.19617 | 17465 ft | 334 kts | 81° |
| 2026-05-04 17:10 | 9.28655 | 39.25907 | 16381 ft | 336 kts | 140° |
| 2026-05-04 17:11 | 9.26599 | 39.27021 | 16032 ft | 337 kts | 161° |
| 2026-05-04 17:11 | 9.24283 | 39.27341 | 15685 ft | 338 kts | 182° |
| 2026-05-04 17:11 | 9.20009 | 39.25620 | 15019 ft | 334 kts | 222° |
| 2026-05-04 17:12 | 9.18549 | 39.23832 | 14751 ft | 327 kts | 242° |
| 2026-05-04 17:12 | 9.15993 | 39.20206 | 14278 ft | 314 kts | 220° |
| 2026-05-04 17:13 | 9.12081 | 39.16303 | 13716 ft | 277 kts | 228° |
| 2026-05-04 17:14 | 9.08430 | 39.12427 | 13373 ft | 235 kts | 226° |
| 2026-05-04 17:14 | 9.07334 | 39.11251 | 13176 ft | 224 kts | 229° |
| 2026-05-04 17:14 | 9.05972 | 39.08589 | 12685 ft | 207 kts | 256° |
| 2026-05-04 17:15 | 9.05581 | 39.07204 | 12447 ft | 203 kts | 255° |
| 2026-05-04 17:15 | 9.04827 | 39.04470 | 11949 ft | 202 kts | 255° |
| 2026-05-04 17:16 | 9.04032 | 39.01760 | 11440 ft | 202 kts | 256° |
| 2026-05-04 17:16 | 9.02782 | 38.97482 | 10743 ft | 215 kts | 254° |
| 2026-05-04 17:17 | 9.02365 | 38.96032 | 10489 ft | 214 kts | 254° |
| 2026-05-04 17:17 | 9.01138 | 38.91795 | 9743 ft | 198 kts | 254° |
| 2026-05-04 17:18 | 9.00766 | 38.90486 | 9439 ft | 191 kts | 255° |
| 2026-05-04 17:18 | 9.00015 | 38.87919 | 8991 ft | 192 kts | 252° |
| 2026-05-04 17:19 | 8.99269 | 38.85319 | 8518 ft | 194 kts | 255° |
| 2026-05-04 17:19 | 8.98493 | 38.82666 | 7921 ft | 194 kts | 252° |
| 2026-05-04 17:20 | 8.97786 | 38.80259 | 7625 ft | 134 kts | 253° |
| 2026-05-04 17:20 | 8.97497 | 38.79238 | 7623 ft | 38 kts | 262° |
| 2026-05-04 17:20 | 8.97515 | 38.79047 | 7622 ft | 23 kts | 283° |
| 2026-05-04 17:21 | 8.97618 | 38.78811 | 7624 ft | 14 kts | 338° |
| 2026-05-04 17:21 | 8.97806 | 38.78753 | 7623 ft | 14 kts | 346° |
| 2026-05-04 17:22 | 8.97867 | 38.78792 | 7623 ft | 12 kts | 73° |
| 2026-05-04 17:22 | 8.97885 | 38.78871 | 7623 ft | 12 kts | 73° |
| 2026-05-04 17:23 | 8.97962 | 38.79126 | 7623 ft | 13 kts | 72° |
| 2026-05-04 17:23 | 8.97991 | 38.79216 | 7623 ft | 14 kts | 72° |
| 2026-05-04 17:23 | 8.98044 | 38.79404 | 7623 ft | 14 kts | 73° |
| 2026-05-04 17:24 | 8.98073 | 38.79499 | 7623 ft | 11 kts | 62° |
| 2026-05-04 17:24 | 8.98090 | 38.79506 | 7623 ft | 1 kts | 319° |
| 2026-05-04 17:25 | 8.98089 | 38.79501 | 7623 ft | 2 kts | 255° |
| 2026-05-04 17:25 | 8.98128 | 38.79437 | 7623 ft | 8 kts | 345° |
| 2026-05-04 17:26 | 8.98164 | 38.79426 | 7623 ft | 0 kts | 342° |